sensor_id;sensor_type;location;lat;lon;timestamp;pressure;altitude;pressure_sealevel;temperature;humidity
52625;BME280;38519;52.540;13.410;2023-05-17T00:01:45;100901.16;;;8.29;100.00
52625;BME280;38519;52.540;13.410;2023-05-17T00:04:10;100899.38;;;8.28;100.00
52625;BME280;38519;52.540;13.410;2023-05-17T00:06:36;100894.53;;;8.23;100.00
52625;BME280;38519;52.540;13.410;2023-05-17T00:09:01;100889.97;;;8.20;100.00
52625;BME280;38519;52.540;13.410;2023-05-17T00:11:27;100897.41;;;8.15;100.00
52625;BME280;38519;52.540;13.410;2023-05-17T00:13:52;100898.97;;;8.13;100.00
52625;BME280;38519;52.540;13.410;2023-05-17T00:16:17;100892.97;;;8.04;100.00
52625;BME280;38519;52.540;13.410;2023-05-17T00:18:43;100902.34;;;8.02;100.00
52625;BME280;38519;52.540;13.410;2023-05-17T00:21:08;100889.47;;;8.03;100.00
52625;BME280;38519;52.540;13.410;2023-05-17T00:23:33;100888.03;;;7.97;100.00
52625;BME280;38519;52.540;13.410;2023-05-17T00:25:58;100887.75;;;7.83;100.00
52625;BME280;38519;52.540;13.410;2023-05-17T00:28:23;100892.97;;;7.83;100.00
52625;BME280;38519;52.540;13.410;2023-05-17T00:30:49;100898.69;;;7.90;100.00
52625;BME280;38519;52.540;13.410;2023-05-17T00:33:14;100894.63;;;7.83;100.00
52625;BME280;38519;52.540;13.410;2023-05-17T00:35:39;100896.97;;;7.80;100.00
52625;BME280;38519;52.540;13.410;2023-05-17T00:38:04;100896.19;;;7.81;100.00
52625;BME280;38519;52.540;13.410;2023-05-17T00:40:30;100897.63;;;7.77;100.00
52625;BME280;38519;52.540;13.410;2023-05-17T00:42:55;100894.09;;;7.77;100.00
52625;BME280;38519;52.540;13.410;2023-05-17T00:45:20;100891.25;;;7.84;100.00
52625;BME280;38519;52.540;13.410;2023-05-17T00:47:45;100898.25;;;7.75;100.00
52625;BME280;38519;52.540;13.410;2023-05-17T00:50:11;100901.25;;;7.69;100.00
52625;BME280;38519;52.540;13.410;2023-05-17T00:52:36;100899.28;;;7.66;100.00
52625;BME280;38519;52.540;13.410;2023-05-17T00:55:02;100903.97;;;7.71;100.00
52625;BME280;38519;52.540;13.410;2023-05-17T00:57:27;100897.97;;;7.72;100.00
52625;BME280;38519;52.540;13.410;2023-05-17T00:59:53;100893.59;;;7.71;100.00
52625;BME280;38519;52.540;13.410;2023-05-17T01:02:19;100885.25;;;7.64;100.00
52625;BME280;38519;52.540;13.410;2023-05-17T01:04:44;100888.47;;;7.62;100.00
52625;BME280;38519;52.540;13.410;2023-05-17T01:07:10;100885.25;;;7.64;100.00
52625;BME280;38519;52.540;13.410;2023-05-17T01:09:35;100890.06;;;7.70;100.00
52625;BME280;38519;52.540;13.410;2023-05-17T01:22:43;100892.22;;;7.55;100.00
52625;BME280;38519;52.540;13.410;2023-05-17T01:25:34;100896.00;;;7.48;100.00
52625;BME280;38519;52.540;13.410;2023-05-17T01:28:00;100906.09;;;7.45;100.00
52625;BME280;38519;52.540;13.410;2023-05-17T01:30:25;100901.81;;;7.46;100.00
52625;BME280;38519;52.540;13.410;2023-05-17T01:32:54;100899.50;;;7.49;100.00
52625;BME280;38519;52.540;13.410;2023-05-17T01:35:20;100904.28;;;7.44;100.00
52625;BME280;38519;52.540;13.410;2023-05-17T01:37:45;100902.63;;;7.45;100.00
52625;BME280;38519;52.540;13.410;2023-05-17T01:40:11;100901.81;;;7.46;100.00
52625;BME280;38519;52.540;13.410;2023-05-17T01:42:37;100912.06;;;7.44;100.00
52625;BME280;38519;52.540;13.410;2023-05-17T01:50:22;100919.59;;;7.41;100.00
52625;BME280;38519;52.540;13.410;2023-05-17T01:52:49;100921.41;;;7.42;100.00
52625;BME280;38519;52.540;13.410;2023-05-17T01:55:25;100921.41;;;7.42;100.00
52625;BME280;38519;52.540;13.410;2023-05-17T01:57:54;100921.00;;;7.38;100.00
52625;BME280;38519;52.540;13.410;2023-05-17T02:00:20;100916.09;;;7.41;100.00
52625;BME280;38519;52.540;13.410;2023-05-17T02:02:46;100924.41;;;7.37;100.00
52625;BME280;38519;52.540;13.410;2023-05-17T02:05:11;100926.88;;;7.35;100.00
52625;BME280;38519;52.540;13.410;2023-05-17T02:07:36;100913.59;;;7.32;100.00
52625;BME280;38519;52.540;13.410;2023-05-17T02:10:03;100917.09;;;7.33;100.00
52625;BME280;38519;52.540;13.410;2023-05-17T02:12:28;100906.44;;;7.29;100.00
52625;BME280;38519;52.540;13.410;2023-05-17T02:14:54;100908.13;;;7.29;100.00
52625;BME280;38519;52.540;13.410;2023-05-17T02:17:19;100905.66;;;7.31;100.00
52625;BME280;38519;52.540;13.410;2023-05-17T02:19:44;100909.94;;;7.30;100.00
52625;BME280;38519;52.540;13.410;2023-05-17T02:22:10;100919.44;;;7.29;100.00
52625;BME280;38519;52.540;13.410;2023-05-17T02:24:35;100915.13;;;7.30;100.00
52625;BME280;38519;52.540;13.410;2023-05-17T02:27:00;100906.72;;;7.33;100.00
52625;BME280;38519;52.540;13.410;2023-05-17T02:29:25;100899.69;;;7.32;100.00
52625;BME280;38519;52.540;13.410;2023-05-17T02:31:51;100901.03;;;7.37;100.00
52625;BME280;38519;52.540;13.410;2023-05-17T02:34:16;100904.94;;;7.42;100.00
52625;BME280;38519;52.540;13.410;2023-05-17T02:36:41;100898.44;;;7.47;100.00
52625;BME280;38519;52.540;13.410;2023-05-17T02:39:08;100901.19;;;7.48;100.00
52625;BME280;38519;52.540;13.410;2023-05-17T02:41:33;100894.97;;;7.57;100.00
52625;BME280;38519;52.540;13.410;2023-05-17T02:43:59;100895.50;;;7.63;100.00
52625;BME280;38519;52.540;13.410;2023-05-17T02:46:24;100895.25;;;7.60;100.00
52625;BME280;38519;52.540;13.410;2023-05-17T02:48:50;100897.97;;;7.61;100.00
52625;BME280;38519;52.540;13.410;2023-05-17T02:51:15;100901.13;;;7.68;100.00
52625;BME280;38519;52.540;13.410;2023-05-17T02:53:40;100898.13;;;7.73;100.00
52625;BME280;38519;52.540;13.410;2023-05-17T02:56:05;100903.31;;;7.73;100.00
52625;BME280;38519;52.540;13.410;2023-05-17T02:58:31;100905.41;;;7.77;100.00
52625;BME280;38519;52.540;13.410;2023-05-17T03:00:56;100898.53;;;7.78;100.00
52625;BME280;38519;52.540;13.410;2023-05-17T03:03:21;100914.41;;;7.81;100.00
52625;BME280;38519;52.540;13.410;2023-05-17T03:05:46;100914.53;;;7.82;100.00
52625;BME280;38519;52.540;13.410;2023-05-17T03:08:11;100917.13;;;7.82;100.00
52625;BME280;38519;52.540;13.410;2023-05-17T03:10:37;100915.28;;;7.81;100.00
52625;BME280;38519;52.540;13.410;2023-05-17T03:13:02;100916.72;;;7.78;100.00
52625;BME280;38519;52.540;13.410;2023-05-17T03:15:27;100932.31;;;7.78;100.00
52625;BME280;38519;52.540;13.410;2023-05-17T03:17:53;100922.44;;;7.74;100.00
52625;BME280;38519;52.540;13.410;2023-05-17T03:20:19;100925.19;;;7.75;100.00
52625;BME280;38519;52.540;13.410;2023-05-17T03:22:44;100929.03;;;7.70;100.00
52625;BME280;38519;52.540;13.410;2023-05-17T03:25:09;100935.81;;;7.68;100.00
52625;BME280;38519;52.540;13.410;2023-05-17T03:27:34;100930.47;;;7.66;100.00
52625;BME280;38519;52.540;13.410;2023-05-17T03:30:00;100934.78;;;7.66;100.00
52625;BME280;38519;52.540;13.410;2023-05-17T03:32:25;100931.38;;;7.67;100.00
52625;BME280;38519;52.540;13.410;2023-05-17T03:34:51;100932.31;;;7.68;100.00
52625;BME280;38519;52.540;13.410;2023-05-17T03:37:16;100934.03;;;7.77;100.00
52625;BME280;38519;52.540;13.410;2023-05-17T03:39:41;100940.38;;;7.81;100.00
52625;BME280;38519;52.540;13.410;2023-05-17T03:42:06;100944.97;;;7.83;100.00
52625;BME280;38519;52.540;13.410;2023-05-17T03:44:31;100942.09;;;7.80;100.00
52625;BME280;38519;52.540;13.410;2023-05-17T03:46:57;100943.88;;;7.81;100.00
52625;BME280;38519;52.540;13.410;2023-05-17T03:49:22;100950.03;;;7.82;100.00
52625;BME280;38519;52.540;13.410;2023-05-17T03:51:47;100952.63;;;7.82;100.00
52625;BME280;38519;52.540;13.410;2023-05-17T03:54:12;100956.47;;;7.77;100.00
52625;BME280;38519;52.540;13.410;2023-05-17T03:56:38;100959.75;;;7.74;100.00
52625;BME280;38519;52.540;13.410;2023-05-17T03:59:03;100963.38;;;7.76;100.00
52625;BME280;38519;52.540;13.410;2023-05-17T04:01:28;100966.44;;;7.62;100.00
52625;BME280;38519;52.540;13.410;2023-05-17T04:03:53;100958.25;;;7.57;100.00
52625;BME280;38519;52.540;13.410;2023-05-17T04:06:19;100972.50;;;7.52;100.00
52625;BME280;38519;52.540;13.410;2023-05-17T04:08:44;100968.75;;;7.48;100.00
52625;BME280;38519;52.540;13.410;2023-05-17T04:11:10;100972.75;;;7.45;100.00
52625;BME280;38519;52.540;13.410;2023-05-17T04:13:38;100982.91;;;7.52;100.00
52625;BME280;38519;52.540;13.410;2023-05-17T04:16:04;100976.53;;;7.48;100.00
52625;BME280;38519;52.540;13.410;2023-05-17T04:18:33;100979.47;;;7.43;100.00
52625;BME280;38519;52.540;13.410;2023-05-17T04:20:58;100979.06;;;7.38;100.00
52625;BME280;38519;52.540;13.410;2023-05-17T04:23:23;100985.47;;;7.42;100.00
52625;BME280;38519;52.540;13.410;2023-05-17T04:25:48;100982.50;;;7.47;100.00
52625;BME280;38519;52.540;13.410;2023-05-17T04:28:14;100984.81;;;7.44;100.00
52625;BME280;38519;52.540;13.410;2023-05-17T04:30:42;100980.03;;;7.49;100.00
52625;BME280;38519;52.540;13.410;2023-05-17T04:33:08;100990.44;;;7.49;100.00
52625;BME280;38519;52.540;13.410;2023-05-17T04:35:33;100985.09;;;7.47;100.00
52625;BME280;38519;52.540;13.410;2023-05-17T04:37:58;101001.09;;;7.52;100.00
52625;BME280;38519;52.540;13.410;2023-05-17T04:40:24;100995.63;;;7.49;100.00
52625;BME280;38519;52.540;13.410;2023-05-17T04:42:49;100999.81;;;7.57;100.00
52625;BME280;38519;52.540;13.410;2023-05-17T04:45:15;101003.75;;;7.62;100.00
52625;BME280;38519;52.540;13.410;2023-05-17T04:47:41;101007.13;;;7.61;100.00
52625;BME280;38519;52.540;13.410;2023-05-17T04:50:07;101006.38;;;7.62;100.00
52625;BME280;38519;52.540;13.410;2023-05-17T04:52:32;101007.88;;;7.60;100.00
52625;BME280;38519;52.540;13.410;2023-05-17T04:54:58;101025.03;;;7.58;100.00
52625;BME280;38519;52.540;13.410;2023-05-17T04:57:23;101014.09;;;7.52;100.00
52625;BME280;38519;52.540;13.410;2023-05-17T04:59:48;101025.91;;;7.48;100.00
52625;BME280;38519;52.540;13.410;2023-05-17T05:02:14;101035.56;;;7.60;100.00
52625;BME280;38519;52.540;13.410;2023-05-17T05:04:39;101040.41;;;7.65;100.00
52625;BME280;38519;52.540;13.410;2023-05-17T05:07:04;101044.47;;;7.72;100.00
52625;BME280;38519;52.540;13.410;2023-05-17T05:09:30;101043.19;;;7.77;100.00
52625;BME280;38519;52.540;13.410;2023-05-17T05:11:55;101049.97;;;7.75;100.00
52625;BME280;38519;52.540;13.410;2023-05-17T05:14:20;101053.31;;;7.74;100.00
52625;BME280;38519;52.540;13.410;2023-05-17T05:16:47;101063.84;;;7.76;100.00
52625;BME280;38519;52.540;13.410;2023-05-17T05:19:12;101062.03;;;7.75;100.00
52625;BME280;38519;52.540;13.410;2023-05-17T05:21:37;101060.13;;;7.82;100.00
52625;BME280;38519;52.540;13.410;2023-05-17T05:24:02;101077.13;;;7.79;100.00
52625;BME280;38519;52.540;13.410;2023-05-17T05:26:28;101075.84;;;7.84;100.00
52625;BME280;38519;52.540;13.410;2023-05-17T05:28:53;101078.34;;;7.93;100.00
52625;BME280;38519;52.540;13.410;2023-05-17T05:31:18;101073.75;;;8.09;100.00
52625;BME280;38519;52.540;13.410;2023-05-17T05:33:44;101076.00;;;8.25;100.00
52625;BME280;38519;52.540;13.410;2023-05-17T05:36:09;101069.53;;;8.30;100.00
52625;BME280;38519;52.540;13.410;2023-05-17T05:38:34;101077.19;;;8.29;100.00
52625;BME280;38519;52.540;13.410;2023-05-17T05:41:01;101080.81;;;8.31;100.00
52625;BME280;38519;52.540;13.410;2023-05-17T05:43:26;101086.16;;;8.22;100.00
52625;BME280;38519;52.540;13.410;2023-05-17T05:45:51;101101.47;;;8.19;100.00
52625;BME280;38519;52.540;13.410;2023-05-17T05:48:16;101095.47;;;8.20;100.00
52625;BME280;38519;52.540;13.410;2023-05-17T05:50:42;101102.81;;;8.34;100.00
52625;BME280;38519;52.540;13.410;2023-05-17T05:53:08;101106.53;;;8.47;100.00
52625;BME280;38519;52.540;13.410;2023-05-17T05:55:34;101108.25;;;8.56;99.08
52625;BME280;38519;52.540;13.410;2023-05-17T05:57:59;101102.50;;;8.50;98.07
52625;BME280;38519;52.540;13.410;2023-05-17T06:00:25;101110.34;;;8.61;96.40
52625;BME280;38519;52.540;13.410;2023-05-17T06:02:50;101108.94;;;8.74;95.28
52625;BME280;38519;52.540;13.410;2023-05-17T06:05:17;101106.06;;;8.61;94.72
52625;BME280;38519;52.540;13.410;2023-05-17T06:07:42;101110.50;;;8.62;92.74
52625;BME280;38519;52.540;13.410;2023-05-17T06:10:08;101108.78;;;8.73;88.02
52625;BME280;38519;52.540;13.410;2023-05-17T06:12:33;101121.72;;;8.82;87.15
52625;BME280;38519;52.540;13.410;2023-05-17T06:14:58;101136.44;;;8.81;85.80
52625;BME280;38519;52.540;13.410;2023-05-17T06:17:23;101137.97;;;8.79;84.41
52625;BME280;38519;52.540;13.410;2023-05-17T06:19:50;101126.34;;;8.55;83.94
52625;BME280;38519;52.540;13.410;2023-05-17T06:22:16;101122.03;;;8.26;85.31
52625;BME280;38519;52.540;13.410;2023-05-17T06:24:41;101131.28;;;8.23;84.77
52625;BME280;38519;52.540;13.410;2023-05-17T06:27:06;101132.19;;;8.23;85.15
52625;BME280;38519;52.540;13.410;2023-05-17T06:29:32;101138.59;;;8.66;82.11
52625;BME280;38519;52.540;13.410;2023-05-17T06:31:57;101140.22;;;8.85;82.53
52625;BME280;38519;52.540;13.410;2023-05-17T06:34:23;101147.50;;;9.09;81.34
52625;BME280;38519;52.540;13.410;2023-05-17T06:36:49;101142.44;;;9.11;82.01
52625;BME280;38519;52.540;13.410;2023-05-17T06:39:14;101145.94;;;9.11;80.08
52625;BME280;38519;52.540;13.410;2023-05-17T06:41:39;101145.16;;;8.92;81.33
52625;BME280;38519;52.540;13.410;2023-05-17T06:44:04;101149.94;;;8.77;80.82
52625;BME280;38519;52.540;13.410;2023-05-17T06:46:30;101145.41;;;8.85;80.04
52625;BME280;38519;52.540;13.410;2023-05-17T06:48:55;101149.81;;;8.86;77.67
52625;BME280;38519;52.540;13.410;2023-05-17T06:51:20;101157.00;;;8.99;77.34
52625;BME280;38519;52.540;13.410;2023-05-17T06:53:46;101152.47;;;9.17;77.10
52625;BME280;38519;52.540;13.410;2023-05-17T06:56:11;101149.38;;;9.31;74.28
52625;BME280;38519;52.540;13.410;2023-05-17T06:58:36;101157.19;;;9.31;71.22
52625;BME280;38519;52.540;13.410;2023-05-17T07:01:01;101162.38;;;9.10;70.36
52625;BME280;38519;52.540;13.410;2023-05-17T07:03:27;101162.88;;;9.06;71.14
52625;BME280;38519;52.540;13.410;2023-05-17T07:05:52;101152.59;;;9.08;71.94
52625;BME280;38519;52.540;13.410;2023-05-17T07:08:17;101160.94;;;9.14;72.38
52625;BME280;38519;52.540;13.410;2023-05-17T07:10:43;101162.22;;;9.19;73.28
52625;BME280;38519;52.540;13.410;2023-05-17T07:13:12;101170.19;;;9.21;72.67
52625;BME280;38519;52.540;13.410;2023-05-17T07:15:37;101165.38;;;9.25;71.54
52625;BME280;38519;52.540;13.410;2023-05-17T07:18:03;101167.19;;;9.16;71.59
52625;BME280;38519;52.540;13.410;2023-05-17T07:20:28;101161.97;;;9.16;72.80
52625;BME280;38519;52.540;13.410;2023-05-17T07:22:53;101165.66;;;9.18;71.27
52625;BME280;38519;52.540;13.410;2023-05-17T07:25:20;101165.91;;;9.21;72.06
52625;BME280;38519;52.540;13.410;2023-05-17T07:27:45;101165.13;;;9.33;72.41
52625;BME280;38519;52.540;13.410;2023-05-17T07:30:11;101166.94;;;9.23;72.40
52625;BME280;38519;52.540;13.410;2023-05-17T07:32:36;101167.44;;;9.50;72.91
52625;BME280;38519;52.540;13.410;2023-05-17T07:35:01;101162.72;;;9.77;71.87
52625;BME280;38519;52.540;13.410;2023-05-17T07:37:27;101169.50;;;9.75;70.29
52625;BME280;38519;52.540;13.410;2023-05-17T07:39:52;101165.75;;;10.14;69.25
52625;BME280;38519;52.540;13.410;2023-05-17T07:42:18;101184.13;;;10.36;71.85
52625;BME280;38519;52.540;13.410;2023-05-17T07:44:43;101191.38;;;10.40;71.95
52625;BME280;38519;52.540;13.410;2023-05-17T07:47:08;101197.03;;;10.34;72.81
52625;BME280;38519;52.540;13.410;2023-05-17T07:49:33;101193.75;;;10.27;72.80
52625;BME280;38519;52.540;13.410;2023-05-17T07:51:59;101196.88;;;9.80;74.52
52625;BME280;38519;52.540;13.410;2023-05-17T07:54:26;101208.25;;;9.60;74.80
52625;BME280;38519;52.540;13.410;2023-05-17T07:56:51;101209.16;;;9.60;72.46
52625;BME280;38519;52.540;13.410;2023-05-17T07:59:19;101210.84;;;9.70;71.86
52625;BME280;38519;52.540;13.410;2023-05-17T08:01:44;101214.75;;;9.86;70.52
52625;BME280;38519;52.540;13.410;2023-05-17T08:04:10;101215.38;;;10.03;69.95
52625;BME280;38519;52.540;13.410;2023-05-17T08:06:35;101221.31;;;10.23;68.79
52625;BME280;38519;52.540;13.410;2023-05-17T08:09:00;101232.25;;;10.29;67.03
52625;BME280;38519;52.540;13.410;2023-05-17T08:11:25;101232.28;;;10.19;68.09
52625;BME280;38519;52.540;13.410;2023-05-17T08:13:51;101230.84;;;10.23;69.00
52625;BME280;38519;52.540;13.410;2023-05-17T08:16:16;101226.66;;;10.25;68.42
52625;BME280;38519;52.540;13.410;2023-05-17T08:18:41;101229.41;;;10.26;67.27
52625;BME280;38519;52.540;13.410;2023-05-17T08:21:07;101227.94;;;10.30;67.92
52625;BME280;38519;52.540;13.410;2023-05-17T08:23:32;101227.47;;;10.34;68.21
52625;BME280;38519;52.540;13.410;2023-05-17T08:25:57;101232.56;;;10.32;68.75
52625;BME280;38519;52.540;13.410;2023-05-17T08:28:22;101229.28;;;10.14;70.35
52625;BME280;38519;52.540;13.410;2023-05-17T08:30:48;101233.53;;;10.45;71.29
52625;BME280;38519;52.540;13.410;2023-05-17T08:33:14;101234.28;;;10.64;70.48
52625;BME280;38519;52.540;13.410;2023-05-17T08:35:39;101244.44;;;10.93;70.10
52625;BME280;38519;52.540;13.410;2023-05-17T08:38:04;101239.94;;;11.03;70.71
52625;BME280;38519;52.540;13.410;2023-05-17T08:40:30;101238.66;;;10.98;70.91
52625;BME280;38519;52.540;13.410;2023-05-17T08:42:55;101250.25;;;10.79;70.60
52625;BME280;38519;52.540;13.410;2023-05-17T08:45:20;101238.28;;;10.93;70.61
52625;BME280;38519;52.540;13.410;2023-05-17T08:47:46;101249.19;;;11.09;68.99
52625;BME280;38519;52.540;13.410;2023-05-17T08:50:13;101248.75;;;11.15;69.13
52625;BME280;38519;52.540;13.410;2023-05-17T08:52:38;101262.38;;;11.11;69.30
52625;BME280;38519;52.540;13.410;2023-05-17T08:55:04;101256.53;;;11.25;68.93
52625;BME280;38519;52.540;13.410;2023-05-17T08:57:30;101243.94;;;11.32;66.72
52625;BME280;38519;52.540;13.410;2023-05-17T08:59:57;101253.84;;;11.36;67.66
52625;BME280;38519;52.540;13.410;2023-05-17T09:02:25;101252.16;;;11.14;67.41
52625;BME280;38519;52.540;13.410;2023-05-17T09:04:50;101243.22;;;11.22;68.27
52625;BME280;38519;52.540;13.410;2023-05-17T09:07:19;101247.53;;;11.00;69.75
52625;BME280;38519;52.540;13.410;2023-05-17T09:09:45;101245.38;;;11.28;71.27
52625;BME280;38519;52.540;13.410;2023-05-17T09:12:10;101256.38;;;11.46;67.48
52625;BME280;38519;52.540;13.410;2023-05-17T09:14:35;101244.25;;;11.58;67.89
52625;BME280;38519;52.540;13.410;2023-05-17T09:17:02;101238.47;;;11.62;69.13
52625;BME280;38519;52.540;13.410;2023-05-17T09:19:27;101247.13;;;11.73;69.43
52625;BME280;38519;52.540;13.410;2023-05-17T09:21:54;101229.53;;;11.82;67.65
52625;BME280;38519;52.540;13.410;2023-05-17T09:24:26;101243.38;;;11.70;68.32
52625;BME280;38519;52.540;13.410;2023-05-17T09:26:52;101252.16;;;11.70;69.15
52625;BME280;38519;52.540;13.410;2023-05-17T09:29:17;101245.69;;;11.77;69.60
52625;BME280;38519;52.540;13.410;2023-05-17T09:31:42;101239.50;;;11.64;71.13
52625;BME280;38519;52.540;13.410;2023-05-17T09:34:08;101245.44;;;11.74;71.08
52625;BME280;38519;52.540;13.410;2023-05-17T09:36:34;101239.47;;;11.98;69.66
52625;BME280;38519;52.540;13.410;2023-05-17T09:39:00;101256.69;;;12.30;68.08
52625;BME280;38519;52.540;13.410;2023-05-17T09:41:29;101241.31;;;12.47;68.34
52625;BME280;38519;52.540;13.410;2023-05-17T09:44:06;101242.00;;;12.20;67.62
52625;BME280;38519;52.540;13.410;2023-05-17T09:46:33;101249.75;;;12.31;68.43
52625;BME280;38519;52.540;13.410;2023-05-17T09:49:00;101255.91;;;12.43;69.19
52625;BME280;38519;52.540;13.410;2023-05-17T09:51:32;101251.56;;;12.44;69.57
52625;BME280;38519;52.540;13.410;2023-05-17T09:53:57;101246.09;;;12.52;69.41
52625;BME280;38519;52.540;13.410;2023-05-17T09:56:24;101256.25;;;12.48;68.23
52625;BME280;38519;52.540;13.410;2023-05-17T09:58:51;101265.59;;;12.44;68.74
52625;BME280;38519;52.540;13.410;2023-05-17T10:01:16;101262.50;;;12.50;69.17
52625;BME280;38519;52.540;13.410;2023-05-17T10:03:41;101261.00;;;12.65;68.90
52625;BME280;38519;52.540;13.410;2023-05-17T10:06:07;101252.13;;;12.51;70.43
52625;BME280;38519;52.540;13.410;2023-05-17T10:08:34;101251.56;;;12.44;70.20
52625;BME280;38519;52.540;13.410;2023-05-17T10:11:04;101250.41;;;12.52;69.95
52625;BME280;38519;52.540;13.410;2023-05-17T10:13:32;101259.16;;;12.88;69.00
52625;BME280;38519;52.540;13.410;2023-05-17T10:15:59;101263.22;;;12.96;68.98
52625;BME280;38519;52.540;13.410;2023-05-17T10:18:25;101261.88;;;12.89;69.58
52625;BME280;38519;52.540;13.410;2023-05-17T10:20:51;101259.44;;;13.16;68.80
52625;BME280;38519;52.540;13.410;2023-05-17T10:23:16;101261.72;;;13.48;68.60
52625;BME280;38519;52.540;13.410;2023-05-17T10:25:43;101263.97;;;13.56;67.13
52625;BME280;38519;52.540;13.410;2023-05-17T10:28:09;101272.44;;;13.15;67.38
52625;BME280;38519;52.540;13.410;2023-05-17T10:30:35;101267.47;;;13.19;68.29
52625;BME280;38519;52.540;13.410;2023-05-17T10:33:00;101263.13;;;13.32;68.77
52625;BME280;38519;52.540;13.410;2023-05-17T10:35:27;101268.50;;;13.33;69.32
52625;BME280;38519;52.540;13.410;2023-05-17T10:37:53;101273.69;;;13.45;70.38
52625;BME280;38519;52.540;13.410;2023-05-17T10:40:19;101274.78;;;13.60;68.38
52625;BME280;38519;52.540;13.410;2023-05-17T10:42:48;101275.09;;;13.40;68.48
52625;BME280;38519;52.540;13.410;2023-05-17T10:45:20;101275.97;;;13.03;69.36
52625;BME280;38519;52.540;13.410;2023-05-17T10:47:46;101278.88;;;12.71;71.22
52625;BME280;38519;52.540;13.410;2023-05-17T10:50:12;101285.66;;;13.04;70.50
52625;BME280;38519;52.540;13.410;2023-05-17T10:52:44;101283.94;;;13.17;70.09
52625;BME280;38519;52.540;13.410;2023-05-17T10:55:10;101284.78;;;13.41;71.06
52625;BME280;38519;52.540;13.410;2023-05-17T10:57:36;101292.59;;;14.03;68.91
52625;BME280;38519;52.540;13.410;2023-05-17T11:00:03;101286.06;;;13.84;68.69
52625;BME280;38519;52.540;13.410;2023-05-17T11:02:31;101286.41;;;13.64;69.58
52625;BME280;38519;52.540;13.410;2023-05-17T11:04:56;101296.28;;;13.43;70.30
52625;BME280;38519;52.540;13.410;2023-05-17T11:07:22;101299.03;;;13.70;71.06
52625;BME280;38519;52.540;13.410;2023-05-17T11:09:52;101289.69;;;13.87;70.29
52625;BME280;38519;52.540;13.410;2023-05-17T11:12:29;101284.31;;;14.10;70.04
52625;BME280;38519;52.540;13.410;2023-05-17T11:14:56;101295.59;;;13.96;70.86
52625;BME280;38519;52.540;13.410;2023-05-17T11:17:25;101292.28;;;13.73;71.20
52625;BME280;38519;52.540;13.410;2023-05-17T11:22:16;101283.72;;;14.28;71.58
52625;BME280;38519;52.540;13.410;2023-05-17T11:24:43;101303.13;;;14.30;70.12
52625;BME280;38519;52.540;13.410;2023-05-17T11:27:08;101294.38;;;13.91;70.12
52625;BME280;38519;52.540;13.410;2023-05-17T11:29:34;101294.38;;;14.04;70.31
52625;BME280;38519;52.540;13.410;2023-05-17T11:31:59;101289.75;;;14.00;71.31
52625;BME280;38519;52.540;13.410;2023-05-17T11:34:29;101277.72;;;13.40;72.39
52625;BME280;38519;52.540;13.410;2023-05-17T11:36:57;101278.69;;;13.54;72.93
52625;BME280;38519;52.540;13.410;2023-05-17T11:39:22;101285.16;;;13.59;72.06
52625;BME280;38519;52.540;13.410;2023-05-17T11:41:50;101267.59;;;13.83;73.45
52625;BME280;38519;52.540;13.410;2023-05-17T11:44:21;101270.78;;;14.44;71.15
52625;BME280;38519;52.540;13.410;2023-05-17T11:46:49;101283.66;;;14.93;68.75
52625;BME280;38519;52.540;13.410;2023-05-17T11:49:14;101280.47;;;14.18;70.45
52625;BME280;38519;52.540;13.410;2023-05-17T11:51:40;101275.44;;;14.21;70.66
52625;BME280;38519;52.540;13.410;2023-05-17T11:54:05;101275.91;;;14.02;73.21
52625;BME280;38519;52.540;13.410;2023-05-17T11:56:34;101273.63;;;14.34;71.33
52625;BME280;38519;52.540;13.410;2023-05-17T11:59:00;101280.69;;;14.21;71.13
52625;BME280;38519;52.540;13.410;2023-05-17T12:01:26;101289.50;;;14.35;70.54
52625;BME280;38519;52.540;13.410;2023-05-17T12:03:55;101293.69;;;14.72;71.15
52625;BME280;38519;52.540;13.410;2023-05-17T12:06:23;101290.41;;;15.03;70.45
52625;BME280;38519;52.540;13.410;2023-05-17T12:08:49;101290.25;;;14.86;70.46
52625;BME280;38519;52.540;13.410;2023-05-17T12:11:15;101286.84;;;15.16;71.41
52625;BME280;38519;52.540;13.410;2023-05-17T12:13:41;101302.47;;;14.99;70.14
52625;BME280;38519;52.540;13.410;2023-05-17T12:16:11;101291.84;;;14.57;71.28
52625;BME280;38519;52.540;13.410;2023-05-17T12:18:46;101284.56;;;14.67;71.76
52625;BME280;38519;52.540;13.410;2023-05-17T12:21:12;101304.50;;;14.63;71.62
52625;BME280;38519;52.540;13.410;2023-05-17T12:23:38;101286.47;;;14.56;71.41
52625;BME280;38519;52.540;13.410;2023-05-17T12:26:11;101302.16;;;14.54;70.23
52625;BME280;38519;52.540;13.410;2023-05-17T12:28:37;101292.84;;;14.73;71.25
52625;BME280;38519;52.540;13.410;2023-05-17T12:31:02;101293.28;;;15.21;70.70
52625;BME280;38519;52.540;13.410;2023-05-17T12:33:32;101290.97;;;15.82;68.89
52625;BME280;38519;52.540;13.410;2023-05-17T12:36:00;101291.81;;;16.26;66.95
52625;BME280;38519;52.540;13.410;2023-05-17T12:38:25;101291.13;;;16.74;66.94
52625;BME280;38519;52.540;13.410;2023-05-17T12:40:52;101288.28;;;17.18;66.50
52625;BME280;38519;52.540;13.410;2023-05-17T12:43:18;101292.22;;;16.48;67.28
52625;BME280;38519;52.540;13.410;2023-05-17T12:45:43;101279.09;;;16.04;68.65
52625;BME280;38519;52.540;13.410;2023-05-17T12:48:09;101287.19;;;16.22;69.59
52625;BME280;38519;52.540;13.410;2023-05-17T12:50:34;101293.97;;;15.88;69.78
52625;BME280;38519;52.540;13.410;2023-05-17T12:53:06;101287.25;;;16.08;69.60